createdAt,value
2017-11-04T00:01:20.279Z,18.10
2017-11-04T00:03:51.138Z,13.07
2017-11-04T00:06:22.110Z,14.23
2017-11-04T00:08:52.960Z,13.80
2017-11-04T00:11:23.816Z,12.23
2017-11-04T00:13:54.660Z,12.03
2017-11-04T00:16:25.507Z,11.50
2017-11-04T00:18:56.382Z,11.97
2017-11-04T00:21:27.243Z,11.67
2017-11-04T00:23:58.110Z,11.07
2017-11-04T00:26:28.959Z,11.53
2017-11-04T00:28:59.816Z,12.27
2017-11-04T00:31:30.686Z,13.70
2017-11-04T00:34:01.544Z,12.73
2017-11-04T00:36:32.424Z,15.63
2017-11-04T00:39:03.283Z,12.40
2017-11-04T00:41:34.115Z,12.53
2017-11-04T00:44:04.983Z,13.20
2017-11-04T00:46:35.823Z,12.97
2017-11-04T00:49:06.699Z,11.80
2017-11-04T00:51:37.546Z,11.80
2017-11-04T00:54:08.400Z,13.20
2017-11-04T00:56:39.263Z,11.10
2017-11-04T00:59:10.103Z,10.87
2017-11-04T01:01:40.960Z,11.33
2017-11-04T01:04:11.797Z,11.73
2017-11-04T01:06:42.672Z,10.77
2017-11-04T01:09:13.529Z,11.20
2017-11-04T01:11:44.393Z,11.30
2017-11-04T01:14:15.269Z,11.80
2017-11-04T01:16:46.136Z,11.20
2017-11-04T01:19:16.997Z,9.97
2017-11-04T01:21:47.863Z,11.23
2017-11-04T01:24:18.724Z,10.20
2017-11-04T01:26:49.567Z,9.83
2017-11-04T01:29:20.445Z,10.17
2017-11-04T01:31:51.280Z,10.20
2017-11-04T01:34:22.138Z,10.63
2017-11-04T01:36:52.967Z,9.63
2017-11-04T01:39:23.812Z,9.97
2017-11-04T01:41:54.656Z,10.00
2017-11-04T01:44:25.557Z,9.50
2017-11-04T01:46:56.376Z,8.73
2017-11-04T01:49:27.255Z,9.33
2017-11-04T01:51:58.101Z,11.10
2017-11-04T01:54:28.947Z,8.40
2017-11-04T01:56:59.805Z,8.40
2017-11-04T01:59:30.638Z,8.20
2017-11-04T02:02:01.510Z,9.20
2017-11-04T02:04:32.440Z,10.20
2017-11-04T02:07:03.281Z,9.13
2017-11-04T02:09:34.144Z,9.30
2017-11-04T02:12:04.996Z,10.20
2017-11-04T02:14:35.835Z,9.73
2017-11-04T02:17:06.676Z,8.23
2017-11-04T02:19:37.516Z,9.27
2017-11-04T02:22:08.387Z,10.37
2017-11-04T02:24:39.233Z,9.43
2017-11-04T02:27:10.146Z,8.83
2017-11-04T02:29:40.974Z,7.77
2017-11-04T02:32:11.845Z,9.00
2017-11-04T02:34:42.697Z,7.90
2017-11-04T02:37:13.556Z,8.97
2017-11-04T02:39:44.390Z,7.50
2017-11-04T02:42:15.248Z,7.80
2017-11-04T02:44:46.077Z,7.70
2017-11-04T02:47:16.912Z,7.70
2017-11-04T02:49:47.765Z,7.77
2017-11-04T02:52:18.644Z,8.07
2017-11-04T02:54:49.488Z,7.80
2017-11-04T02:57:20.362Z,7.50
2017-11-04T02:59:51.227Z,7.87
2017-11-04T03:02:22.071Z,8.07
2017-11-04T03:04:52.940Z,8.67
2017-11-04T03:07:23.787Z,7.47
2017-11-04T03:09:54.644Z,6.80
2017-11-04T03:12:25.493Z,8.40
2017-11-04T03:14:56.359Z,7.20
2017-11-04T03:17:27.184Z,10.77
2017-11-04T03:19:58.016Z,7.17
2017-11-04T03:22:28.866Z,7.60
2017-11-04T03:24:59.717Z,7.13
2017-11-04T03:27:30.592Z,7.20
2017-11-04T03:30:01.441Z,7.93
2017-11-04T03:32:32.303Z,8.17
2017-11-04T03:35:03.131Z,7.50
2017-11-04T03:37:33.978Z,7.90
2017-11-04T03:40:04.820Z,7.37
2017-11-04T03:42:35.680Z,6.50
2017-11-04T03:45:06.519Z,6.97
2017-11-04T03:47:37.383Z,7.57
2017-11-04T03:50:08.225Z,6.73
2017-11-04T03:52:39.097Z,6.97
2017-11-04T03:55:09.953Z,6.60
2017-11-04T03:57:40.816Z,6.50
2017-11-04T04:00:11.643Z,7.23
2017-11-04T04:02:42.487Z,7.00
2017-11-04T04:05:13.325Z,6.90
2017-11-04T04:07:44.172Z,7.27
2017-11-04T04:10:15.024Z,7.30
2017-11-04T04:12:45.904Z,7.07
2017-11-04T04:15:16.771Z,6.77
2017-11-04T04:17:47.622Z,7.00
2017-11-04T04:20:18.480Z,6.90
2017-11-04T04:22:49.309Z,7.53
2017-11-04T04:25:20.287Z,7.07
2017-11-04T04:27:51.108Z,6.33
2017-11-04T04:30:21.949Z,7.40
2017-11-04T04:32:52.804Z,8.07
2017-11-04T04:35:23.648Z,6.80
2017-11-04T04:37:54.491Z,6.50
2017-11-04T04:40:25.346Z,7.30
2017-11-04T04:42:56.196Z,6.60
2017-11-04T04:45:27.075Z,5.80
2017-11-04T04:47:57.918Z,6.17
2017-11-04T04:50:28.805Z,7.53
2017-11-04T04:52:59.625Z,6.90
2017-11-04T04:55:30.453Z,6.03
2017-11-04T04:58:01.312Z,6.23
2017-11-04T05:00:32.213Z,7.20
2017-11-04T05:03:03.071Z,5.90
2017-11-04T05:05:33.912Z,8.07
2017-11-04T05:08:04.775Z,7.60
2017-11-04T05:10:35.738Z,7.47
2017-11-04T05:13:06.571Z,6.00
2017-11-04T05:15:37.408Z,8.33
2017-11-04T05:18:08.259Z,7.67
2017-11-04T05:20:39.079Z,11.10
2017-11-04T05:23:09.928Z,7.90
2017-11-04T05:25:40.787Z,6.80
2017-11-04T05:28:11.616Z,6.73
2017-11-04T05:30:42.447Z,6.97
2017-11-04T05:33:13.280Z,5.40
2017-11-04T05:35:44.144Z,7.20
2017-11-04T05:38:15.008Z,5.97
2017-11-04T05:40:45.851Z,6.40
2017-11-04T05:43:16.724Z,5.90
2017-11-04T05:45:47.578Z,6.17
2017-11-04T05:48:18.439Z,6.10
2017-11-04T05:50:49.297Z,6.60
2017-11-04T05:53:20.131Z,6.60
2017-11-04T05:55:50.976Z,6.43
2017-11-04T05:58:21.817Z,6.07
2017-11-04T06:00:52.739Z,5.87
2017-11-04T06:03:23.560Z,5.60
2017-11-04T06:05:54.395Z,6.10
2017-11-04T06:08:25.248Z,5.23
2017-11-04T06:10:56.104Z,8.37
2017-11-04T06:13:26.948Z,5.90
2017-11-04T06:15:57.801Z,5.63
2017-11-04T06:18:28.631Z,4.67
2017-11-04T06:20:59.487Z,7.60
2017-11-04T06:23:30.335Z,5.27
2017-11-04T06:26:01.197Z,4.97
2017-11-04T06:28:32.036Z,5.90
2017-11-04T06:31:02.895Z,6.47
2017-11-04T06:33:33.756Z,6.77
2017-11-04T06:36:04.599Z,4.90
2017-11-04T06:38:35.456Z,5.77
2017-11-04T06:41:06.318Z,5.63
2017-11-04T06:43:37.159Z,5.37
2017-11-04T06:46:08.016Z,4.93
2017-11-04T06:48:38.852Z,5.90
2017-11-04T06:51:09.724Z,5.43
2017-11-04T06:53:40.559Z,5.33
2017-11-04T06:56:11.383Z,5.23
2017-11-04T06:58:42.213Z,4.43
2017-11-04T07:01:13.045Z,4.70
2017-11-04T07:03:43.920Z,5.30
2017-11-04T07:06:14.755Z,6.63
2017-11-04T07:08:45.728Z,5.50
2017-11-04T07:11:16.540Z,5.17
2017-11-04T07:13:47.404Z,5.23
2017-11-04T07:16:18.241Z,5.40
2017-11-04T07:18:49.100Z,5.00
2017-11-04T07:21:19.941Z,5.53
2017-11-04T07:23:50.791Z,4.90
2017-11-04T07:26:21.625Z,5.03
2017-11-04T07:28:52.528Z,5.40
2017-11-04T07:31:23.358Z,6.83
2017-11-04T07:33:54.184Z,4.83
2017-11-04T07:36:25.000Z,5.00
2017-11-04T07:38:55.832Z,4.50
2017-11-04T07:41:26.679Z,4.57
2017-11-04T07:43:57.654Z,5.47
2017-11-04T07:46:28.481Z,4.63
2017-11-04T07:48:59.307Z,4.30
2017-11-04T07:51:30.153Z,5.60
2017-11-04T07:54:01.032Z,5.23
2017-11-04T07:56:31.866Z,4.30
2017-11-04T07:59:02.695Z,4.60
2017-11-04T08:01:33.549Z,5.37
2017-11-04T08:04:04.399Z,4.60
2017-11-04T08:06:35.268Z,4.23
2017-11-04T08:09:06.111Z,4.90
2017-11-04T08:11:36.959Z,4.60
2017-11-04T08:14:07.816Z,6.03
2017-11-04T08:16:38.689Z,7.37
2017-11-04T08:19:09.537Z,6.13
2017-11-04T08:21:40.403Z,7.90
2017-11-04T08:24:11.239Z,7.70
2017-11-04T08:26:42.115Z,5.53
2017-11-04T08:29:12.968Z,6.83
2017-11-04T08:31:43.854Z,7.60
2017-11-04T08:34:14.687Z,7.60
2017-11-04T08:36:45.517Z,5.57
2017-11-04T08:39:16.335Z,4.90
2017-11-04T08:41:47.183Z,4.50
2017-11-04T08:44:18.028Z,5.10
2017-11-04T08:46:48.916Z,7.20
2017-11-04T08:49:19.781Z,6.57
2017-11-04T08:51:50.619Z,6.40
2017-11-04T08:54:21.479Z,6.50
2017-11-04T08:56:52.324Z,5.23
2017-11-04T08:59:23.191Z,13.13
2017-11-04T09:01:54.065Z,9.27
2017-11-04T09:04:24.925Z,6.00
2017-11-04T09:06:55.752Z,5.90
2017-11-04T09:09:26.598Z,7.80
2017-11-04T09:11:57.444Z,5.33
2017-11-04T09:14:28.288Z,7.83
2017-11-04T09:16:59.148Z,6.33
2017-11-04T09:19:30.000Z,9.23
2017-11-04T09:22:00.848Z,24.93
2017-11-04T09:24:31.696Z,22.67
2017-11-04T09:27:02.538Z,11.73
2017-11-04T09:29:33.549Z,10.47
2017-11-04T09:32:04.370Z,6.97
2017-11-04T09:35:39.431Z,4.23
2017-11-04T09:38:10.297Z,5.90
2017-11-04T09:40:41.183Z,6.10
2017-11-04T09:43:12.032Z,5.70
2017-11-04T09:45:42.906Z,7.83
2017-11-04T09:48:13.750Z,5.17
2017-11-04T09:50:44.654Z,6.27
2017-11-04T09:53:15.489Z,7.03
2017-11-04T09:55:46.317Z,4.03
2017-11-04T09:58:17.160Z,4.87
2017-11-04T10:00:48.103Z,5.07
2017-11-04T10:03:18.958Z,5.77
2017-11-04T10:05:49.827Z,7.37
2017-11-04T10:08:20.683Z,7.43
2017-11-04T10:10:51.540Z,7.97
2017-11-04T10:13:22.389Z,6.43
2017-11-04T10:15:53.245Z,6.13
2017-11-04T10:18:24.086Z,5.47
2017-11-04T10:20:54.978Z,4.07
2017-11-04T10:23:25.804Z,5.97
2017-11-04T10:25:56.640Z,4.27
2017-11-04T10:28:27.477Z,4.43
2017-11-04T10:30:58.320Z,4.87
2017-11-04T10:33:29.164Z,5.77
2017-11-04T10:35:59.999Z,7.77
2017-11-04T10:38:30.851Z,6.83
2017-11-04T10:41:01.722Z,4.30
2017-11-04T10:43:32.571Z,4.13
2017-11-04T10:46:03.442Z,5.57
2017-11-04T10:48:34.313Z,3.60
2017-11-04T10:51:05.205Z,4.47
2017-11-04T10:53:36.057Z,5.80
2017-11-04T10:56:06.915Z,7.23
2017-11-04T10:58:37.748Z,3.90
2017-11-04T11:01:08.585Z,5.07
2017-11-04T11:03:39.413Z,5.10
2017-11-04T11:06:10.272Z,4.77
2017-11-04T11:08:41.137Z,4.00
2017-11-04T11:11:11.994Z,4.40
2017-11-04T11:13:42.894Z,2.87
2017-11-04T11:16:13.749Z,6.30
2017-11-04T11:18:44.604Z,5.47
2017-11-04T11:21:15.468Z,3.53
2017-11-04T11:23:46.351Z,3.77
2017-11-04T11:26:17.213Z,5.83
2017-11-04T11:28:48.054Z,3.47
2017-11-04T11:31:18.899Z,6.40
2017-11-04T11:33:49.806Z,5.10
2017-11-04T11:36:20.637Z,3.20
2017-11-04T11:38:51.477Z,3.47
2017-11-04T11:41:22.331Z,5.30
2017-11-04T11:43:53.213Z,3.07
2017-11-04T11:46:24.067Z,2.70
2017-11-04T11:48:54.912Z,3.00
2017-11-04T11:51:25.765Z,4.47
2017-11-04T11:53:56.617Z,2.90
2017-11-04T11:56:27.473Z,4.10
2017-11-04T11:58:58.371Z,2.50
2017-11-04T12:01:29.223Z,3.70
2017-11-04T12:04:00.089Z,3.87
2017-11-04T12:06:30.974Z,2.73
2017-11-04T12:09:01.819Z,4.40
2017-11-04T12:11:32.689Z,4.53
2017-11-04T12:14:03.555Z,6.60
2017-11-04T12:16:34.440Z,6.57
2017-11-04T12:19:05.295Z,8.93
2017-11-04T12:21:36.165Z,6.57
2017-11-04T12:24:07.021Z,7.70
2017-11-04T12:26:37.904Z,7.03
2017-11-04T12:29:08.754Z,6.07
2017-11-04T12:31:39.604Z,8.40
2017-11-04T12:34:10.494Z,5.57
2017-11-04T12:36:41.358Z,7.43
2017-11-04T12:39:12.215Z,7.03
2017-11-04T12:41:43.062Z,4.37
2017-11-04T12:44:13.919Z,4.57
2017-11-04T12:46:45.447Z,6.03
2017-11-04T12:49:16.308Z,1.67
2017-11-04T12:51:47.184Z,3.20
2017-11-04T12:54:18.048Z,2.60
2017-11-04T12:56:48.927Z,2.77
2017-11-04T12:59:19.768Z,4.10
2017-11-04T13:01:50.621Z,1.80
2017-11-04T13:04:21.485Z,2.23
2017-11-04T13:06:52.355Z,1.87
2017-11-04T13:09:23.249Z,1.20
2017-11-04T13:11:54.189Z,1.50
2017-11-04T13:14:25.038Z,1.00
2017-11-04T13:16:55.912Z,1.60
2017-11-04T13:19:26.794Z,0.40
2017-11-04T13:21:57.640Z,0.50
2017-11-04T13:24:28.524Z,0.50
2017-11-04T13:26:59.374Z,0.50
2017-11-04T13:29:30.228Z,2.33
2017-11-04T13:32:01.069Z,0.30
2017-11-04T13:34:32.008Z,1.33
2017-11-04T13:37:02.844Z,0.90
2017-11-04T13:39:33.696Z,0.80
2017-11-04T13:42:04.552Z,1.80
2017-11-04T13:44:35.413Z,0.70
2017-11-04T13:47:06.277Z,0.30
2017-11-04T13:49:37.153Z,1.07
2017-11-04T13:52:08.034Z,0.43
2017-11-04T13:54:38.915Z,0.43
2017-11-04T13:57:09.784Z,1.47
2017-11-04T13:59:40.638Z,1.00
2017-11-04T14:02:11.539Z,1.17
2017-11-04T14:04:42.480Z,0.57
2017-11-04T14:07:13.406Z,0.40
2017-11-04T14:09:44.277Z,0.83
2017-11-04T14:12:15.132Z,0.90
2017-11-04T14:14:45.998Z,1.03
2017-11-04T14:17:16.860Z,0.93
2017-11-04T14:19:47.693Z,1.20
2017-11-04T14:22:18.533Z,1.37
2017-11-04T14:24:49.392Z,1.37
2017-11-04T14:27:20.253Z,1.07
2017-11-04T14:29:51.111Z,2.93
2017-11-04T14:32:21.943Z,2.73
2017-11-04T14:34:52.776Z,1.37
2017-11-04T14:37:23.620Z,0.70
2017-11-04T14:39:54.499Z,1.00
2017-11-04T14:42:25.338Z,1.37
2017-11-04T14:44:56.187Z,1.70
2017-11-04T14:47:27.066Z,1.27
2017-11-04T14:49:57.946Z,0.93
2017-11-04T14:52:28.818Z,0.90
2017-11-04T14:54:59.651Z,2.20
2017-11-04T14:57:30.508Z,2.70
2017-11-04T15:00:01.348Z,0.87
2017-11-04T15:02:32.259Z,1.60
2017-11-04T15:05:03.099Z,0.60
2017-11-04T15:07:33.988Z,0.90
2017-11-04T15:10:04.838Z,1.60
2017-11-04T15:12:35.715Z,1.87
2017-11-04T15:15:06.545Z,1.97
2017-11-04T15:17:37.429Z,2.00
2017-11-04T15:22:50.921Z,1.70
2017-11-04T15:25:21.784Z,3.83
2017-11-04T15:27:52.694Z,3.10
2017-11-04T15:30:25.196Z,5.73
2017-11-04T15:32:56.578Z,8.48
2017-11-04T15:35:27.453Z,8.63
2017-11-04T15:37:58.335Z,6.90
2017-11-04T15:40:29.194Z,8.10
2017-11-04T15:43:00.071Z,10.43
2017-11-04T15:45:30.920Z,7.10
2017-11-04T15:48:01.768Z,17.23
2017-11-04T15:50:32.664Z,20.80
2017-11-04T15:53:03.521Z,18.53
2017-11-04T15:55:34.385Z,18.23
2017-11-04T15:58:05.256Z,13.67
2017-11-04T16:00:36.130Z,13.40
2017-11-04T16:03:07.069Z,13.93
2017-11-04T16:05:37.938Z,12.50
2017-11-04T16:08:08.811Z,15.30
2017-11-04T16:10:39.662Z,16.10
2017-11-04T16:13:10.504Z,10.83
2017-11-04T16:15:41.393Z,10.13
2017-11-04T16:18:12.241Z,14.20
2017-11-04T16:20:43.111Z,6.90
2017-11-04T16:23:13.996Z,10.40
2017-11-04T16:25:44.837Z,9.20
2017-11-04T16:28:15.685Z,12.03
2017-11-04T16:30:46.547Z,8.37
2017-11-04T16:33:17.415Z,9.70
2017-11-04T16:35:48.288Z,7.73
2017-11-04T16:38:19.159Z,6.60
2017-11-04T16:40:50.033Z,10.70
2017-11-04T16:43:20.891Z,10.60
2017-11-04T16:45:51.791Z,9.40
2017-11-04T16:48:22.654Z,9.40
2017-11-04T16:50:53.518Z,7.87
2017-11-04T16:53:24.384Z,9.40
2017-11-04T16:55:55.224Z,7.40
2017-11-04T16:58:26.080Z,7.00
2017-11-04T17:00:56.940Z,7.60
2017-11-04T17:03:27.822Z,6.30
2017-11-04T17:05:58.682Z,7.40
2017-11-04T17:08:29.553Z,8.33
2017-11-04T17:11:00.387Z,7.10
2017-11-04T17:13:31.323Z,12.50
2017-11-04T17:16:02.182Z,7.20
2017-11-04T17:18:33.053Z,8.27
2017-11-04T17:21:03.917Z,10.17
2017-11-04T17:23:34.779Z,9.47
2017-11-04T17:26:05.633Z,9.37
2017-11-04T17:28:36.532Z,7.80
2017-11-04T17:31:07.496Z,7.33
2017-11-04T17:33:38.440Z,6.17
2017-11-04T17:36:09.273Z,8.17
2017-11-04T17:38:40.131Z,9.33
2017-11-04T17:41:11.016Z,8.23
2017-11-04T17:43:41.875Z,6.73
2017-11-04T17:46:12.756Z,6.73
2017-11-04T17:48:43.623Z,6.47
2017-11-04T17:51:14.482Z,6.10
2017-11-04T17:53:45.333Z,8.53
2017-11-04T17:56:16.195Z,6.27
2017-11-04T17:58:47.051Z,7.63
2017-11-04T18:01:17.910Z,9.30
2017-11-04T18:03:48.773Z,6.13
2017-11-04T18:06:19.638Z,3.93
2017-11-04T18:08:50.496Z,4.40
2017-11-04T18:11:21.372Z,4.47
2017-11-04T18:13:52.241Z,4.90
2017-11-04T18:16:23.093Z,6.60
2017-11-04T18:18:53.984Z,7.63
2017-11-04T18:21:24.849Z,5.23
2017-11-04T18:23:55.782Z,4.70
2017-11-04T18:26:26.616Z,4.63
2017-11-04T18:28:57.483Z,5.43
2017-11-04T18:31:28.409Z,5.70
2017-11-04T18:33:59.256Z,3.80
2017-11-04T18:36:30.110Z,4.03
2017-11-04T18:39:01.000Z,5.57
2017-11-04T18:41:31.837Z,6.17
2017-11-04T18:44:02.690Z,4.67
2017-11-04T18:46:33.549Z,4.00
2017-11-04T18:49:04.392Z,3.57
2017-11-04T18:51:35.277Z,5.77
2017-11-04T18:54:06.141Z,4.00
2017-11-04T18:56:37.026Z,5.97
2017-11-04T18:59:07.891Z,3.47
2017-11-04T19:01:38.766Z,6.30
2017-11-04T19:04:09.647Z,5.60
2017-11-04T19:06:40.488Z,4.13
2017-11-04T19:09:11.372Z,7.60
2017-11-04T19:11:42.282Z,3.60
2017-11-04T19:14:13.144Z,5.40
2017-11-04T19:16:44.010Z,5.60
2017-11-04T19:19:14.880Z,12.83
2017-11-04T19:21:45.757Z,8.80
2017-11-04T19:24:16.626Z,9.10
2017-11-04T19:26:47.796Z,12.33
2017-11-04T19:29:18.710Z,10.50
2017-11-04T19:31:49.567Z,9.33
2017-11-04T19:34:20.425Z,7.10
2017-11-04T19:36:51.294Z,13.40
2017-11-04T19:39:22.135Z,11.60
2017-11-04T19:41:53.071Z,11.10
2017-11-04T19:44:23.937Z,9.43
2017-11-04T19:46:54.808Z,7.57
2017-11-04T19:49:25.697Z,11.10
2017-11-04T19:51:56.619Z,7.33
2017-11-04T19:54:27.503Z,5.83
2017-11-04T19:56:58.353Z,9.23
2017-11-04T19:59:29.236Z,6.93
2017-11-04T20:02:00.075Z,5.37
2017-11-04T20:04:30.934Z,5.77
2017-11-04T20:07:01.780Z,7.10
2017-11-04T20:09:32.791Z,6.20
2017-11-04T20:12:03.647Z,6.28
2017-11-04T20:14:34.537Z,6.80
2017-11-04T20:17:05.381Z,4.90
2017-11-04T20:19:36.260Z,6.70
2017-11-04T20:22:07.115Z,4.00
2017-11-04T20:24:38.014Z,4.13
2017-11-04T20:27:08.956Z,4.93
2017-11-04T20:29:39.792Z,5.17
2017-11-04T20:32:10.637Z,4.30
2017-11-04T20:34:41.546Z,6.33
2017-11-04T20:37:12.437Z,3.10
2017-11-04T20:39:43.272Z,6.70
2017-11-04T20:42:14.140Z,4.23
2017-11-04T20:44:44.997Z,4.57
2017-11-04T20:47:15.857Z,8.43
2017-11-04T20:49:46.740Z,5.07
2017-11-04T20:52:17.634Z,8.90
2017-11-04T20:54:48.498Z,8.23
2017-11-04T20:57:19.366Z,8.50
2017-11-04T20:59:50.244Z,3.60
2017-11-04T21:02:21.189Z,4.73
2017-11-04T21:04:52.057Z,8.20
2017-11-04T21:07:23.562Z,23.43
2017-11-04T21:09:54.420Z,20.73
2017-11-04T21:12:25.309Z,23.27
2017-11-04T21:14:56.190Z,19.73
2017-11-04T21:17:27.036Z,21.17
2017-11-04T21:19:57.886Z,24.30
2017-11-04T21:22:28.764Z,20.30
2017-11-04T21:24:59.634Z,21.67
2017-11-04T21:27:30.519Z,19.13
2017-11-04T21:30:01.368Z,24.73
2017-11-04T21:32:32.203Z,19.40
2017-11-04T21:35:03.058Z,14.60
2017-11-04T21:37:33.937Z,16.20
2017-11-04T21:40:04.884Z,12.10
2017-11-04T21:42:35.733Z,13.80
2017-11-04T21:45:06.617Z,12.03
2017-11-04T21:47:37.476Z,10.20
2017-11-04T21:50:08.358Z,8.83
2017-11-04T21:52:39.224Z,12.03
2017-11-04T21:55:10.096Z,13.93
2017-11-04T21:57:40.930Z,7.30
2017-11-04T22:00:11.808Z,12.60
2017-11-04T22:02:42.650Z,7.83
2017-11-04T22:05:13.557Z,6.77
2017-11-04T22:07:44.387Z,8.03
2017-11-04T22:10:15.232Z,5.47
2017-11-04T22:12:46.156Z,5.07
2017-11-04T22:15:17.039Z,4.00
2017-11-04T22:17:47.894Z,4.90
2017-11-04T22:20:18.812Z,4.67
2017-11-04T22:22:49.680Z,4.10
2017-11-04T22:25:20.661Z,6.47
2017-11-04T22:27:51.510Z,3.07
2017-11-04T22:30:22.357Z,3.80
2017-11-04T22:32:53.235Z,5.20
2017-11-04T22:35:24.080Z,4.60
2017-11-04T22:37:54.969Z,2.90
2017-11-04T22:40:25.821Z,4.07
2017-11-04T22:42:56.707Z,4.87
2017-11-04T22:45:27.555Z,2.57
2017-11-04T22:47:58.416Z,4.50
2017-11-04T22:50:29.308Z,6.10
2017-11-04T22:53:00.132Z,3.67
2017-11-04T22:55:30.992Z,4.97
2017-11-04T22:58:01.849Z,4.00
2017-11-04T23:00:32.723Z,3.47
2017-11-04T23:03:03.584Z,3.23
2017-11-04T23:05:34.450Z,3.10
2017-11-04T23:08:05.300Z,4.47
2017-11-04T23:10:36.167Z,5.10
2017-11-04T23:13:07.077Z,4.30
2017-11-04T23:15:37.915Z,5.80
2017-11-04T23:18:08.762Z,4.30
2017-11-04T23:20:39.635Z,4.70
2017-11-04T23:23:10.500Z,3.40
2017-11-04T23:25:41.301Z,3.10
2017-11-04T23:28:12.111Z,3.20
2017-11-04T23:30:42.908Z,3.83
2017-11-04T23:33:13.751Z,5.67
2017-11-04T23:35:44.525Z,6.03
2017-11-04T23:38:15.338Z,4.63
2017-11-04T23:40:46.125Z,4.53
2017-11-04T23:43:16.942Z,4.20
2017-11-04T23:45:47.719Z,3.00
2017-11-04T23:48:18.548Z,4.30
2017-11-04T23:50:49.321Z,3.30
2017-11-04T23:53:20.126Z,3.07
2017-11-04T23:55:50.967Z,3.23
2017-11-04T23:58:21.847Z,4.47
